Terminal Aerodrome Forecast
Issued by NWS Mt. Holly, NJ

Home | Current Version | Previous Version | Text Only | Print | Product List | Glossary On
Versions: 1 2 3 4 5 6 7 8 9 10 11 12 13 14 15 16
000
FTUS41 KPHI 281741
TAFACY
TAF
KACY 281741Z 2818/2918 17010KT P6SM FEW050
     FM282000 18010G18KT P6SM SKC
     FM290000 20006KT P6SM SKC
     FM290800 00000KT 4SM BR SKC
     FM291000 00000KT 2SM BR SKC
     FM291500 18006KT P6SM OVC050=

USA.gov is the U.S. government's official web portal to all federal, state and local government web resources and services.